KNKX/NKX METAR and TAF weather

Enter ICAO airport designator
Station Type Date Time Source
KNKX METAR 2020/03/31 08:55 UTC NOAA

KNKX 310855Z 08003KT 10SM CLR 11/08 A3011 RMK AO2 SLP193 T01060083 58016


Station Type Date Time Source
KNKX Decoded METAR 2020/03/31 08:55 UTC NOAA

MCAS MIRAMAR, CA, United States (KNKX) 32-52N 117-09W 146M
Mar 31, 2020 - 04:55 AM EDT / 2020.03.31 0855 UTC
Wind: from the E (080 degrees) at 3 MPH (3 KT):0
Visibility: 10 mile(s):0
Sky conditions: clear
Temperature: 51.1 F (10.6 C)
Dew Point: 46.9 F (8.3 C)
Relative Humidity: 85%
Pressure (altimeter): 30.11 in. Hg (1019 hPa)
Pressure tendency: 0.05 inches (1.6 hPa) lower than three hours ago
ob: KNKX 310855Z 08003KT 10SM CLR 11/08 A3011 RMK AO2 SLP193 T01060083 58016
cycle: 9

Station Type Date Time Source
KNKX TAF 2020/03/31 09:33 UTC NOAA

TAF KNKX 3109/0109 VRB05KT 9999 SKC QNH3005INS
TEMPO 3109/3115 VRB05KT 9999 BKN009 QNH3000INS
FM31600 VRB05KT 9999 SKC QNH2985INS
TEMPO 3120/0102 29010KT T09/3111Z T23/3121Z

Example: see airport list